createdAt,value
2022-12-11T00:00:40.067Z,63.34
2022-12-11T00:03:10.226Z,63.18
2022-12-11T00:05:41.029Z,61.87
2022-12-11T00:08:08.179Z,63.00
2022-12-11T00:10:38.030Z,62.40
2022-12-11T00:13:05.555Z,62.68
2022-12-11T00:15:32.296Z,61.85
2022-12-11T00:17:58.983Z,60.84
2022-12-11T00:20:25.661Z,61.12
2022-12-11T00:22:52.370Z,62.02
2022-12-11T00:25:18.951Z,62.37
2022-12-11T00:27:47.063Z,63.13
2022-12-11T00:30:14.485Z,62.37
2022-12-11T00:32:41.469Z,61.54
2022-12-11T00:35:08.692Z,63.01
2022-12-11T00:37:35.669Z,62.88
2022-12-11T00:40:02.357Z,64.74
2022-12-11T00:42:29.320Z,63.15
2022-12-11T00:44:56.497Z,61.78
2022-12-11T00:47:23.135Z,61.09
2022-12-11T00:49:50.270Z,60.55
2022-12-11T00:52:18.504Z,61.32
2022-12-11T00:54:45.785Z,61.62
2022-12-11T00:57:12.397Z,62.19
2022-12-11T00:59:39.518Z,61.74
2022-12-11T01:02:06.187Z,62.22
2022-12-11T01:04:35.789Z,63.60
2022-12-11T01:07:02.526Z,63.76
2022-12-11T01:09:47.672Z,63.36
2022-12-11T01:12:14.233Z,63.33
2022-12-11T01:14:41.096Z,63.61
2022-12-11T01:17:07.739Z,62.90
2022-12-11T01:19:34.317Z,63.78
2022-12-11T01:22:01.165Z,61.42
2022-12-11T01:24:28.684Z,62.23
2022-12-11T01:26:57.492Z,62.08
2022-12-11T01:29:24.090Z,61.96
2022-12-11T01:31:50.857Z,60.98
2022-12-11T01:34:17.380Z,62.26
2022-12-11T01:36:44.039Z,65.18
2022-12-11T01:39:10.757Z,65.63
2022-12-11T01:41:37.398Z,66.77
2022-12-11T01:44:15.836Z,65.56
2022-12-11T01:46:44.318Z,63.09
2022-12-11T01:49:13.851Z,63.16
2022-12-11T01:52:19.364Z,65.98
2022-12-11T01:54:48.887Z,64.08
2022-12-11T01:57:16.456Z,64.43
2022-12-11T01:59:46.517Z,63.79
2022-12-11T02:02:39.686Z,62.65
2022-12-11T02:05:08.487Z,63.54
2022-12-11T02:07:41.168Z,63.32
2022-12-11T02:10:08.966Z,63.44
2022-12-11T02:12:44.869Z,65.11
2022-12-11T02:15:25.452Z,67.24
2022-12-11T02:18:04.159Z,66.54
2022-12-11T02:20:44.017Z,65.29
2022-12-11T02:23:13.740Z,65.35
2022-12-11T02:25:52.776Z,65.07
2022-12-11T02:28:43.345Z,65.13
2022-12-11T02:31:36.802Z,64.46
2022-12-11T02:34:07.595Z,64.92
2022-12-11T02:36:38.717Z,64.73
2022-12-11T02:39:07.500Z,64.04
2022-12-11T02:41:34.421Z,64.88
2022-12-11T02:44:02.969Z,65.35
2022-12-11T02:46:31.318Z,65.96
2022-12-11T02:48:58.365Z,66.45
2022-12-11T02:51:28.173Z,66.11
2022-12-11T02:53:58.028Z,67.24
2022-12-11T02:56:32.958Z,66.47
2022-12-11T02:59:06.063Z,64.91
2022-12-11T03:01:32.686Z,66.05
2022-12-11T03:03:59.511Z,65.31
2022-12-11T03:06:32.912Z,66.62
2022-12-11T03:08:59.757Z,65.89
2022-12-11T03:11:26.380Z,64.25
2022-12-11T03:13:54.152Z,64.12
2022-12-11T03:16:29.929Z,63.20
2022-12-11T03:19:20.290Z,63.11
2022-12-11T03:21:55.328Z,63.64
2022-12-11T03:24:34.840Z,64.12
2022-12-11T03:27:31.068Z,63.20
2022-12-11T03:30:04.070Z,63.57
2022-12-11T03:32:38.649Z,63.14
2022-12-11T03:35:23.399Z,65.34
2022-12-11T03:37:52.731Z,64.17
2022-12-11T03:40:22.263Z,64.18
2022-12-11T03:42:51.878Z,64.38
2022-12-11T03:45:20.849Z,65.96
2022-12-11T03:47:48.289Z,65.40
2022-12-11T03:50:18.183Z,65.58
2022-12-11T03:52:48.226Z,64.10
2022-12-11T03:55:16.916Z,65.07
2022-12-11T03:57:43.778Z,66.65
2022-12-11T04:00:17.240Z,66.55
2022-12-11T04:02:45.217Z,67.40
2022-12-11T04:05:12.409Z,67.54
2022-12-11T04:07:39.404Z,69.06
2022-12-11T04:10:06.320Z,67.91
2022-12-11T04:12:32.921Z,66.54
2022-12-11T04:15:02.404Z,68.66
2022-12-11T04:17:52.804Z,67.75
2022-12-11T04:20:39.068Z,68.12
2022-12-11T04:23:26.564Z,69.57
2022-12-11T04:25:53.131Z,69.02
2022-12-11T04:28:19.912Z,69.22
2022-12-11T04:30:50.137Z,69.85
2022-12-11T04:33:17.022Z,68.92
2022-12-11T04:35:43.620Z,68.54
2022-12-11T04:38:10.249Z,68.15
2022-12-11T04:40:36.970Z,67.81
2022-12-11T04:43:03.667Z,68.95
2022-12-11T04:45:30.433Z,68.15
2022-12-11T04:47:57.078Z,67.87
2022-12-11T04:50:23.835Z,67.78
2022-12-11T04:52:51.075Z,68.09
2022-12-11T04:55:17.840Z,67.08
2022-12-11T04:57:44.452Z,67.91
2022-12-11T05:00:12.910Z,67.48
2022-12-11T05:02:41.351Z,66.94
2022-12-11T05:05:10.324Z,68.10
2022-12-11T05:07:37.932Z,68.00
2022-12-11T05:10:05.675Z,67.35
2022-12-11T05:12:32.798Z,66.47
2022-12-11T05:14:59.294Z,66.78
2022-12-11T05:17:25.999Z,66.24
2022-12-11T05:19:52.670Z,65.00
2022-12-11T05:22:19.321Z,67.36
2022-12-11T05:24:46.071Z,66.24
2022-12-11T05:27:13.157Z,65.58
2022-12-11T05:29:39.707Z,63.89
2022-12-11T05:32:06.656Z,64.51
2022-12-11T05:34:33.155Z,65.50
2022-12-11T05:36:59.887Z,66.27
2022-12-11T05:39:26.821Z,64.25
2022-12-11T05:41:53.490Z,64.60
2022-12-11T05:44:20.310Z,64.51
2022-12-11T05:46:47.473Z,64.47
2022-12-11T05:49:14.295Z,64.76
2022-12-11T05:51:41.509Z,65.35
2022-12-11T05:54:10.878Z,64.21
2022-12-11T05:56:38.546Z,63.86
2022-12-11T05:59:06.793Z,62.92
2022-12-11T06:01:34.826Z,62.17
2022-12-11T06:04:02.860Z,61.86
2022-12-11T06:06:29.582Z,61.11
2022-12-11T06:08:58.176Z,62.40
2022-12-11T06:11:35.843Z,61.84
2022-12-11T06:14:04.224Z,61.47
2022-12-11T06:16:31.404Z,62.01
2022-12-11T06:18:58.829Z,62.25
2022-12-11T06:21:31.233Z,61.40
2022-12-11T06:24:06.436Z,62.97
2022-12-11T06:26:33.265Z,61.86
2022-12-11T06:29:00.478Z,62.67
2022-12-11T06:31:27.467Z,63.51
2022-12-11T06:33:55.027Z,65.19
2022-12-11T06:36:24.313Z,64.18
2022-12-11T06:38:51.347Z,62.39
2022-12-11T06:41:18.192Z,62.01
2022-12-11T06:43:45.105Z,61.95
2022-12-11T06:46:15.093Z,62.13
2022-12-11T06:48:43.329Z,61.91
2022-12-11T06:51:14.233Z,63.54
2022-12-11T06:53:41.763Z,62.39
2022-12-11T06:56:15.904Z,61.89
2022-12-11T06:58:44.378Z,62.00
2022-12-11T07:01:23.569Z,60.90
2022-12-11T07:03:53.759Z,60.95
2022-12-11T07:06:20.461Z,61.43
2022-12-11T07:08:49.669Z,61.22
2022-12-11T07:11:18.557Z,61.05
2022-12-11T07:13:46.526Z,60.93
2022-12-11T07:16:15.715Z,60.63
2022-12-11T07:18:47.700Z,61.88
2022-12-11T07:21:15.050Z,62.27
2022-12-11T07:23:42.194Z,61.17
2022-12-11T07:26:13.020Z,60.71
2022-12-11T07:28:40.360Z,60.67
2022-12-11T07:31:10.620Z,60.44
2022-12-11T07:33:37.665Z,60.90
2022-12-11T07:36:05.601Z,61.41
2022-12-11T07:38:33.029Z,62.56
2022-12-11T07:41:05.497Z,63.03
2022-12-11T07:43:32.936Z,63.08
2022-12-11T07:46:05.305Z,65.08
2022-12-11T07:48:32.521Z,64.18
2022-12-11T07:51:19.656Z,63.78
2022-12-11T07:53:49.726Z,62.95
2022-12-11T07:56:19.328Z,61.07
2022-12-11T07:58:46.567Z,62.83
2022-12-11T08:01:17.508Z,63.93
2022-12-11T08:03:44.699Z,62.01
2022-12-11T08:06:12.790Z,61.35
2022-12-11T08:08:41.529Z,60.66
2022-12-11T08:11:11.997Z,60.74
2022-12-11T08:13:39.125Z,62.85
2022-12-11T08:16:09.671Z,62.62
2022-12-11T08:18:38.755Z,61.47
2022-12-11T08:21:07.631Z,60.54
2022-12-11T08:23:34.600Z,61.27
2022-12-11T08:26:06.836Z,62.33
2022-12-11T08:28:33.711Z,62.49
2022-12-11T08:31:01.029Z,61.75
2022-12-11T08:33:27.731Z,61.77
2022-12-11T08:35:54.367Z,59.54
2022-12-11T08:38:25.327Z,62.36
2022-12-11T08:40:52.494Z,60.90
2022-12-11T08:43:19.074Z,61.05
2022-12-11T08:45:47.285Z,59.95
2022-12-11T08:48:13.952Z,58.99
2022-12-11T08:50:40.813Z,58.28
2022-12-11T08:53:08.275Z,58.66
2022-12-11T08:55:34.937Z,58.68
2022-12-11T08:58:02.100Z,59.41
2022-12-11T09:00:28.749Z,60.64
2022-12-11T09:02:55.388Z,61.09
2022-12-11T09:05:22.137Z,60.29
2022-12-11T09:07:48.797Z,59.02
2022-12-11T09:10:15.565Z,58.71
2022-12-11T09:12:43.042Z,57.29
2022-12-11T09:15:10.534Z,59.75
2022-12-11T09:17:37.471Z,58.88
2022-12-11T09:20:05.015Z,57.12
2022-12-11T09:22:33.654Z,56.27
2022-12-11T09:25:03.301Z,57.98
2022-12-11T09:27:29.928Z,57.48
2022-12-11T09:29:56.538Z,57.58
2022-12-11T09:32:23.191Z,58.33
2022-12-11T09:34:51.411Z,57.62
2022-12-11T09:37:18.022Z,58.00
2022-12-11T09:39:44.672Z,57.71
2022-12-11T09:42:44.725Z,57.09
2022-12-11T09:45:15.099Z,56.85
2022-12-11T09:47:45.643Z,56.24
2022-12-11T09:50:22.458Z,56.50
2022-12-11T09:52:58.109Z,55.22
2022-12-11T09:55:29.849Z,54.67
2022-12-11T09:58:23.078Z,54.79
2022-12-11T10:01:02.556Z,55.38
2022-12-11T10:04:07.031Z,55.75
2022-12-11T10:06:43.228Z,54.74
2022-12-11T10:09:20.269Z,54.85
2022-12-11T10:11:57.166Z,51.65
2022-12-11T10:14:33.146Z,54.34
2022-12-11T10:17:10.022Z,53.09
2022-12-11T10:19:37.110Z,54.08
2022-12-11T10:22:03.976Z,53.71
2022-12-11T10:25:10.197Z,52.25
2022-12-11T10:27:31.917Z,52.79
2022-12-11T10:30:14.118Z,53.62
2022-12-11T10:32:46.876Z,54.37
2022-12-11T10:35:39.868Z,53.82
2022-12-11T10:38:17.577Z,54.29
2022-12-11T10:40:50.016Z,53.85
2022-12-11T10:43:16.754Z,53.35
2022-12-11T10:45:54.263Z,52.54
2022-12-11T10:48:22.356Z,53.09
2022-12-11T10:50:58.985Z,52.43
2022-12-11T10:53:26.415Z,52.10
2022-12-11T10:55:53.848Z,52.54
2022-12-11T10:58:38.040Z,53.24
2022-12-11T11:01:15.535Z,51.61
2022-12-11T11:03:57.535Z,52.05
2022-12-11T11:06:25.793Z,51.57
2022-12-11T11:08:58.396Z,52.82
2022-12-11T11:11:28.156Z,51.48
2022-12-11T11:14:18.435Z,51.65
2022-12-11T11:16:53.127Z,50.66
2022-12-11T11:19:30.891Z,51.66
2022-12-11T11:22:01.394Z,51.51
2022-12-11T11:24:41.655Z,50.92
2022-12-11T11:27:33.426Z,52.17
2022-12-11T11:30:10.584Z,52.68
2022-12-11T11:32:42.094Z,52.98
2022-12-11T11:35:12.443Z,51.45
2022-12-11T11:37:45.378Z,52.67
2022-12-11T11:40:20.061Z,52.21
2022-12-11T11:42:58.210Z,54.10
2022-12-11T11:45:35.077Z,53.07
2022-12-11T11:48:31.656Z,52.40
2022-12-11T11:50:58.618Z,53.93
2022-12-11T11:53:37.324Z,54.51
2022-12-11T11:56:35.770Z,56.16
2022-12-11T11:59:24.956Z,54.02
2022-12-11T12:01:55.907Z,54.03
2022-12-11T12:04:22.965Z,53.02
2022-12-11T12:07:04.515Z,53.51
2022-12-11T12:09:40.344Z,52.92
2022-12-11T12:12:43.428Z,52.50
2022-12-11T12:15:10.178Z,52.90
2022-12-11T12:17:50.406Z,53.89
2022-12-11T12:20:58.821Z,54.59
2022-12-11T12:23:43.721Z,52.90
2022-12-11T12:26:41.100Z,55.19
2022-12-11T12:29:49.331Z,53.52
2022-12-11T12:32:25.273Z,52.60
2022-12-11T12:35:14.087Z,51.86
2022-12-11T12:38:06.263Z,52.21
2022-12-11T12:40:42.512Z,53.56
2022-12-11T12:43:33.841Z,52.73
2022-12-11T12:46:18.033Z,53.61
2022-12-11T12:48:45.521Z,53.70
2022-12-11T12:51:18.712Z,53.05
2022-12-11T12:54:00.764Z,53.89
2022-12-11T12:56:30.749Z,54.10
2022-12-11T12:58:57.856Z,52.93
2022-12-11T13:01:27.322Z,53.05
2022-12-11T13:04:16.778Z,54.70
2022-12-11T13:06:54.961Z,52.02
2022-12-11T13:09:27.892Z,53.37
2022-12-11T13:12:01.603Z,53.84
2022-12-11T13:14:33.827Z,53.12
2022-12-11T13:17:22.594Z,53.45
2022-12-11T13:19:51.641Z,52.34
2022-12-11T13:22:24.529Z,51.66
2022-12-11T13:25:04.163Z,50.74
2022-12-11T13:27:44.405Z,52.30
2022-12-11T13:30:14.163Z,51.08
2022-12-11T13:32:55.064Z,50.56
2022-12-11T13:35:21.877Z,51.85
2022-12-11T13:37:55.432Z,51.23
2022-12-11T13:40:26.774Z,52.75
2022-12-11T13:43:02.224Z,53.54
2022-12-11T13:45:50.456Z,53.46
2022-12-11T13:48:25.725Z,53.11
2022-12-11T13:50:54.380Z,51.97
2022-12-11T13:53:22.752Z,52.78
2022-12-11T13:56:01.734Z,52.09
2022-12-11T13:58:31.265Z,52.52
2022-12-11T14:01:07.767Z,52.41
2022-12-11T14:03:35.825Z,52.51
2022-12-11T14:06:03.848Z,53.21
2022-12-11T14:08:37.272Z,52.55
2022-12-11T14:11:05.542Z,52.41
2022-12-11T14:13:55.713Z,51.61
2022-12-11T14:16:24.340Z,52.36
2022-12-11T14:18:52.567Z,52.50
2022-12-11T14:21:25.055Z,52.84
2022-12-11T14:24:06.504Z,49.77
2022-12-11T14:26:37.981Z,51.96
2022-12-11T14:29:06.118Z,50.97
2022-12-11T14:31:43.169Z,51.32
2022-12-11T14:34:44.487Z,50.36
2022-12-11T14:37:15.856Z,50.97
2022-12-11T14:40:10.233Z,50.12
2022-12-11T14:42:49.080Z,49.91
2022-12-11T14:45:33.713Z,50.22
2022-12-11T14:48:03.509Z,50.52
2022-12-11T14:50:43.763Z,49.67
2022-12-11T14:53:15.626Z,48.67
2022-12-11T14:55:43.179Z,47.65
2022-12-11T14:58:19.041Z,48.25
2022-12-11T15:01:06.553Z,47.72
2022-12-11T15:03:41.423Z,48.36
2022-12-11T15:06:27.923Z,47.77
2022-12-11T15:08:54.896Z,49.14
2022-12-11T15:11:22.609Z,50.07
2022-12-11T15:13:59.293Z,49.61
2022-12-11T15:16:31.544Z,49.21
2022-12-11T15:18:59.014Z,49.83
2022-12-11T15:21:36.089Z,49.04
2022-12-11T15:24:05.364Z,49.68
2022-12-11T15:26:39.656Z,49.94
2022-12-11T15:29:24.155Z,50.13
2022-12-11T15:32:07.636Z,49.74
2022-12-11T15:34:52.044Z,49.19
2022-12-11T15:37:40.769Z,49.48
2022-12-11T15:40:08.106Z,49.75
2022-12-11T15:42:39.051Z,48.95
2022-12-11T15:45:09.567Z,48.39
2022-12-11T15:47:36.823Z,48.55
2022-12-11T15:50:22.360Z,48.92
2022-12-11T15:52:50.123Z,50.45
2022-12-11T15:55:23.331Z,49.96
2022-12-11T15:57:55.794Z,50.45
2022-12-11T16:00:28.186Z,50.42
2022-12-11T16:02:55.982Z,49.09
2022-12-11T16:05:23.136Z,49.66
2022-12-11T16:07:54.891Z,49.40
2022-12-11T16:10:22.505Z,49.74
2022-12-11T16:12:50.205Z,51.32
2022-12-11T16:15:23.166Z,50.29
2022-12-11T16:17:50.487Z,50.81
2022-12-11T16:20:17.700Z,51.16
2022-12-11T16:22:46.861Z,51.30
2022-12-11T16:25:13.746Z,50.75
2022-12-11T16:27:40.749Z,52.55
2022-12-11T16:30:07.901Z,50.73
2022-12-11T16:32:37.581Z,50.58
2022-12-11T16:35:04.623Z,51.37
2022-12-11T16:37:31.291Z,50.73
2022-12-11T16:39:58.390Z,50.74
2022-12-11T16:42:25.138Z,50.52
2022-12-11T16:44:51.927Z,51.65
2022-12-11T16:47:18.551Z,50.82
2022-12-11T16:49:49.627Z,51.43
2022-12-11T16:52:21.978Z,50.66
2022-12-11T16:54:49.158Z,51.81
2022-12-11T16:57:15.908Z,52.28
2022-12-11T16:59:43.501Z,52.69
2022-12-11T17:02:11.694Z,52.44
2022-12-11T17:04:38.705Z,52.02
2022-12-11T17:07:05.781Z,52.35
2022-12-11T17:09:32.889Z,53.23
2022-12-11T17:11:59.313Z,52.37
2022-12-11T17:14:25.966Z,53.42
2022-12-11T17:16:53.748Z,53.88
2022-12-11T17:19:20.712Z,55.38
2022-12-11T17:21:51.578Z,53.50
2022-12-11T17:24:19.991Z,54.27
2022-12-11T17:26:46.969Z,53.02
2022-12-11T17:29:13.936Z,52.46
2022-12-11T17:31:41.095Z,52.57
2022-12-11T17:34:07.773Z,52.69
2022-12-11T17:36:34.972Z,51.82
2022-12-11T17:39:03.380Z,51.45
2022-12-11T17:41:29.872Z,51.82
2022-12-11T17:43:56.594Z,52.20
2022-12-11T17:46:23.571Z,52.19
2022-12-11T17:48:52.354Z,53.26
2022-12-11T17:51:26.149Z,54.32
2022-12-11T17:54:05.851Z,54.45
2022-12-11T17:56:37.898Z,54.30
2022-12-11T17:59:18.626Z,55.00
2022-12-11T18:01:48.926Z,54.61
2022-12-11T18:04:24.759Z,54.08
2022-12-11T18:06:57.622Z,53.50
2022-12-11T18:09:27.953Z,54.71
2022-12-11T18:11:55.842Z,54.46
2022-12-11T18:14:22.857Z,54.53
2022-12-11T18:16:57.992Z,55.29
2022-12-11T18:19:27.090Z,54.31
2022-12-11T18:21:54.886Z,54.03
2022-12-11T18:24:31.895Z,53.63
2022-12-11T18:27:02.628Z,55.01
2022-12-11T18:29:55.553Z,55.97
2022-12-11T18:32:27.855Z,55.84
2022-12-11T18:35:06.284Z,55.15
2022-12-11T18:37:49.167Z,56.23
2022-12-11T18:40:17.172Z,55.63
2022-12-11T18:42:46.994Z,57.66
2022-12-11T18:45:14.489Z,58.03
2022-12-11T18:47:44.672Z,56.91
2022-12-11T18:50:11.341Z,56.24
2022-12-11T18:52:38.154Z,57.55
2022-12-11T18:55:05.725Z,57.86
2022-12-11T18:57:33.306Z,57.31
2022-12-11T19:00:09.455Z,57.94
2022-12-11T19:02:41.286Z,56.41
2022-12-11T19:05:08.661Z,57.20
2022-12-11T19:07:36.961Z,57.11
2022-12-11T19:10:09.036Z,56.93
2022-12-11T19:12:49.661Z,56.05
2022-12-11T19:15:27.149Z,56.16
2022-12-11T19:17:54.374Z,55.32
2022-12-11T19:23:07.991Z,54.69
2022-12-11T19:25:34.679Z,53.93
2022-12-11T19:28:01.404Z,55.20
2022-12-11T19:30:28.243Z,55.46
2022-12-11T19:32:55.077Z,54.50
2022-12-11T19:35:22.317Z,53.48
2022-12-11T19:37:49.157Z,56.79
2022-12-11T19:40:16.624Z,57.64
2022-12-11T19:42:43.704Z,57.82
2022-12-11T19:45:11.431Z,55.94
2022-12-11T19:47:39.276Z,57.00
2022-12-11T19:50:06.567Z,57.13
2022-12-11T19:52:33.549Z,56.53
2022-12-11T19:55:04.333Z,55.34
2022-12-11T19:57:32.872Z,56.74
2022-12-11T20:00:00.491Z,56.05
2022-12-11T20:02:28.688Z,57.05
2022-12-11T20:04:55.629Z,57.19
2022-12-11T20:07:27.419Z,54.97
2022-12-11T20:09:57.382Z,54.54
2022-12-11T20:12:24.617Z,55.20
2022-12-11T20:14:51.532Z,53.45
2022-12-11T20:17:18.282Z,55.89
2022-12-11T20:19:44.995Z,56.17
2022-12-11T20:22:30.476Z,55.60
2022-12-11T20:24:57.455Z,53.68
2022-12-11T20:27:26.373Z,55.32
2022-12-11T20:29:54.049Z,55.63
2022-12-11T20:32:21.554Z,55.68
2022-12-11T20:34:48.265Z,54.74
2022-12-11T20:37:15.004Z,56.11
2022-12-11T20:39:42.020Z,54.87
2022-12-11T20:42:09.706Z,54.51
2022-12-11T20:44:36.413Z,56.23
2022-12-11T20:47:03.359Z,55.48
2022-12-11T20:49:29.985Z,57.16
2022-12-11T20:51:57.003Z,55.32
2022-12-11T20:54:24.009Z,55.74
2022-12-11T20:56:51.000Z,55.19
2022-12-11T20:59:17.991Z,55.62
2022-12-11T21:01:45.355Z,56.45
2022-12-11T21:04:12.298Z,55.66
2022-12-11T21:06:40.699Z,55.83
2022-12-11T21:09:17.872Z,54.97
2022-12-11T21:11:45.235Z,56.03
2022-12-11T21:14:11.896Z,56.08
2022-12-11T21:16:40.725Z,56.94
2022-12-11T21:19:11.218Z,57.64
2022-12-11T21:21:40.957Z,58.11
2022-12-11T21:24:14.174Z,57.46
2022-12-11T21:26:40.954Z,57.13
2022-12-11T21:29:10.976Z,57.65
2022-12-11T21:31:37.996Z,56.47
2022-12-11T21:34:04.695Z,56.56
2022-12-11T21:36:31.563Z,57.18
2022-12-11T21:38:59.912Z,57.20
2022-12-11T21:41:27.335Z,56.88
2022-12-11T21:46:42.878Z,56.26
2022-12-11T21:49:10.121Z,56.41
2022-12-11T21:51:41.516Z,56.06
2022-12-11T21:54:14.432Z,56.01
2022-12-11T21:56:41.596Z,56.03
2022-12-11T21:59:09.437Z,57.23
2022-12-11T22:01:42.233Z,56.31
2022-12-11T22:04:10.583Z,56.13
2022-12-11T22:06:37.722Z,55.94
2022-12-11T22:09:05.732Z,54.78
2022-12-11T22:11:34.690Z,54.92
2022-12-11T22:14:02.049Z,54.58
2022-12-11T22:16:28.943Z,55.19
2022-12-11T22:18:55.879Z,56.18
2022-12-11T22:21:22.879Z,56.92
2022-12-11T22:23:50.034Z,57.21
2022-12-11T22:26:21.063Z,57.04
2022-12-11T22:28:49.190Z,57.61
2022-12-11T22:31:19.742Z,57.46
2022-12-11T22:33:49.571Z,56.37
2022-12-11T22:36:18.771Z,57.35
2022-12-11T22:38:45.501Z,55.83
2022-12-11T22:41:18.947Z,56.92
2022-12-11T22:43:49.946Z,57.73
2022-12-11T22:46:18.847Z,59.54
2022-12-11T22:48:45.602Z,60.57
2022-12-11T22:51:12.551Z,61.32
2022-12-11T22:53:40.125Z,61.87
2022-12-11T22:56:08.221Z,61.79
2022-12-11T22:58:35.105Z,62.27
2022-12-11T23:01:02.939Z,62.58
2022-12-11T23:03:29.577Z,62.18
2022-12-11T23:05:57.357Z,62.35
2022-12-11T23:08:26.582Z,62.00
2022-12-11T23:10:53.601Z,62.78
2022-12-11T23:13:20.333Z,62.94
2022-12-11T23:15:46.945Z,62.27
2022-12-11T23:18:14.038Z,63.36
2022-12-11T23:20:40.638Z,64.64
2022-12-11T23:23:07.278Z,63.01
2022-12-11T23:25:34.342Z,63.54
2022-12-11T23:28:00.888Z,62.86
2022-12-11T23:30:27.538Z,63.53
2022-12-11T23:32:54.370Z,64.09
2022-12-11T23:35:21.150Z,64.37
2022-12-11T23:37:48.086Z,64.06
2022-12-11T23:40:15.017Z,63.97
2022-12-11T23:42:41.676Z,63.30
2022-12-11T23:45:08.709Z,63.08
2022-12-11T23:47:35.327Z,64.68
2022-12-11T23:50:02.131Z,64.25
2022-12-11T23:52:28.933Z,64.29
2022-12-11T23:54:55.670Z,64.87
2022-12-11T23:57:23.473Z,64.33
2022-12-11T23:59:50.229Z,64.83
